Voornedijk — PBOW — position and weather

sailwx.info

Track history (hours):
 
Tides and Currents Weather Stations Pressure Air Temp Water Temp Dewpoint Dewpoint Depression Visibility Wind Speed Wind Dir Waves Ship Positions

Voornedijk

Last reported at 2018-Jan-23 04:11 UTC. Time now 2018-Jan-23 08:24 UTC.
Position N 37°39' E 009°44'.

Length 90 m; draft 6.1 m.

Type: Cargo ship. MMSI: 244971000.

Date/timePositionNaut miles runAvg speedWind from/ knotsBaromVisibWave heightAir tempDewpointWater temp
2018-Jan-23 04:11N 37°39' E 009°44'1 6.3
2018-Jan-23 03:59N 37°39' E 009°45'3 6.0
2018-Jan-23 03:30N 37°39' E 009°49'3 5.8
2018-Jan-23 03:00N 37°39' E 009°53'3 5.7
2018-Jan-23 02:30N 37°39' E 009°56'3 5.7
2018-Jan-23 02:00N 37°40' E 009°60'3 5.2
2018-Jan-23 01:30N 37°40' E 010°03'  
2018-Jan-19 11:49N 36°50' E 023°32'3810.9
2018-Jan-19 08:17N 37°23' E 023°57'311.2
2018-Jan-19 07:59N 37°26' E 023°59'610.5
2018-Jan-19 07:27N 37°31' E 024°03'4 9.9
2018-Jan-19 07:00N 37°35' E 024°06'510.9
2018-Jan-19 06:30N 37°39' E 024°10'510.6
2018-Jan-19 06:00N 37°44' E 024°13'1410.5
2018-Jan-19 04:42N 37°52' E 024°27'210.7
2018-Jan-19 04:30N 37°54' E 024°29'  
Track history (hours):
 
Tides and Currents Weather Stations Pressure Air Temp Water Temp Dewpoint Dewpoint Depression Visibility Wind Speed Wind Dir Waves Ship Positions

Voornedijk

Last reported at 2018-Jan-23 04:11 UTC. Time now 2018-Jan-23 08:24 UTC.
Position N 37°39' E 009°44'.

Length 90 m; draft 6.1 m.

Type: Cargo ship. MMSI: 244971000.

Date/timePositionNaut miles runAvg speedWind from/ knotsBaromVisibWave heightAir tempDewpointWater temp
2018-Jan-23 04:11N 37°39' E 009°44'1 6.3
2018-Jan-23 03:59N 37°39' E 009°45'3 6.0
2018-Jan-23 03:30N 37°39' E 009°49'3 5.8
2018-Jan-23 03:00N 37°39' E 009°53'3 5.7
2018-Jan-23 02:30N 37°39' E 009°56'3 5.7
2018-Jan-23 02:00N 37°40' E 009°60'3 5.2
2018-Jan-23 01:30N 37°40' E 010°03'  
2018-Jan-19 11:49N 36°50' E 023°32'3810.9
2018-Jan-19 08:17N 37°23' E 023°57'311.2
2018-Jan-19 07:59N 37°26' E 023°59'610.5
2018-Jan-19 07:27N 37°31' E 024°03'4 9.9
2018-Jan-19 07:00N 37°35' E 024°06'510.9
2018-Jan-19 06:30N 37°39' E 024°10'510.6
2018-Jan-19 06:00N 37°44' E 024°13'1410.5
2018-Jan-19 04:42N 37°52' E 024°27'210.7
2018-Jan-19 04:30N 37°54' E 024°29'  

Dump ship's entire track history